Time;durP1;ratioP1;P1;durP2;ratioP2;P2;SDS_P1;SDS_P2;PMS_P1;PMS_P2;Temp;Humidity;BMP_temperature;BMP_pressure;BME280_temperature;BME280_humidity;BME280_pressure;Samples;Min_cycle;Max_cycle;Signal;HPM_P1;HPM_P2
2022/05/09 00:05:02;;;;;;;2.17;1.77;;;;;;;20.02;47.59;97674.78;10256253;28;20043;-92
2022/05/09 00:10:27;;;;;;;1.98;1.83;;;;;;;20.02;47.51;97675.56;10237483;28;20061;-91
2022/05/09 00:15:48;;;;;;;1.60;1.50;;;;;;;20.01;47.58;97683.97;10251780;28;20039;-92
2022/05/09 00:21:11;;;;;;;2.10;1.75;;;;;;;20.00;47.73;97675.09;10301371;28;20057;-91
2022/05/09 00:26:34;;;;;;;1.73;1.60;;;;;;;20.01;47.65;97673.16;10233403;28;20078;-91
2022/05/09 00:31:56;;;;;;;1.63;1.40;;;;;;;19.99;47.51;97672.69;10274570;28;20121;-92
2022/05/09 00:37:28;;;;;;;1.90;1.52;;;;;;;19.99;47.56;97675.38;10255504;28;20178;-91
2022/05/09 00:42:57;;;;;;;1.83;1.65;;;;;;;19.99;47.55;97672.69;10285894;28;20038;-92
2022/05/09 00:48:19;;;;;;;2.42;1.65;;;;;;;19.99;47.49;97672.69;10275400;28;20043;-91
2022/05/09 00:53:42;;;;;;;2.40;1.42;;;;;;;19.97;47.59;97666.78;10271852;28;20162;-91
2022/05/09 00:59:13;;;;;;;1.75;1.42;;;;;;;19.97;47.59;97664.06;10239256;28;20051;-92
2022/05/09 01:04:46;;;;;;;1.90;1.48;;;;;;;19.95;47.50;97659.78;10273495;28;20062;-91
2022/05/09 01:10:09;;;;;;;1.88;1.40;;;;;;;19.95;47.67;97659.78;10255935;28;20410;-91
2022/05/09 01:15:30;;;;;;;1.60;1.50;;;;;;;19.94;47.52;97668.97;10263704;28;20050;-92
2022/05/09 01:20:54;;;;;;;1.80;1.60;;;;;;;19.93;47.52;97666.56;10268905;28;20075;-92
2022/05/09 01:26:16;;;;;;;1.75;1.65;;;;;;;19.94;47.60;97668.19;10258491;28;20043;-92
2022/05/09 01:31:36;;;;;;;1.85;1.65;;;;;;;19.93;47.58;97662.00;10265760;28;20812;-92
2022/05/09 01:37:03;;;;;;;1.98;1.60;;;;;;;19.92;47.55;97665.78;10250276;28;20055;-92
2022/05/09 01:42:34;;;;;;;1.75;1.55;;;;;;;19.92;47.64;97660.38;10258571;28;20119;-92
2022/05/09 01:53:45;;;;;;;1.65;1.55;;;;;;;19.91;47.64;97669.59;10235024;28;20113;-92
2022/05/09 01:59:07;;;;;;;1.83;1.52;;;;;;;19.90;47.58;97670.69;10264628;28;20101;-92
2022/05/09 02:04:34;;;;;;;2.28;1.60;;;;;;;19.90;47.54;97669.91;10240666;28;20130;-92
2022/05/09 02:10:05;;;;;;;1.58;1.48;;;;;;;19.89;47.67;97674.50;10288391;28;20409;-91
2022/05/09 02:15:31;;;;;;;1.50;1.40;;;;;;;19.89;47.58;97677.19;10258696;28;20138;-92
2022/05/09 02:20:53;;;;;;;1.65;1.55;;;;;;;19.88;47.35;97669.41;10251705;28;20059;-91
2022/05/09 02:26:13;;;;;;;1.38;1.27;;;;;;;19.87;47.54;97671.31;10258829;28;20438;-92
2022/05/09 02:31:39;;;;;;;1.73;1.40;;;;;;;19.86;47.64;97672.41;10252524;28;20177;-92
2022/05/09 02:37:34;;;;;;;2.22;1.30;;;;;;;19.86;47.64;97680.53;10290927;28;20054;-92
2022/05/09 02:43:06;;;;;;;2.08;1.40;;;;;;;19.85;47.68;97683.53;10257251;28;20054;-92
2022/05/09 02:48:49;;;;;;;1.40;1.30;;;;;;;19.85;47.63;97697.84;10260856;28;20059;-93
2022/05/09 02:54:19;;;;;;;1.55;1.45;;;;;;;19.84;47.62;97690.06;10260397;28;20055;-91
2022/05/09 02:59:40;;;;;;;1.60;1.50;;;;;;;19.85;47.74;97697.84;10280881;28;20821;-92
2022/05/09 03:05:00;;;;;;;1.92;1.50;;;;;;;19.83;47.76;97705.47;10250082;28;20051;-91
2022/05/09 03:10:19;;;;;;;1.50;1.40;;;;;;;19.82;47.90;97701.19;10268606;28;20537;-92
2022/05/09 03:15:53;;;;;;;1.58;1.48;;;;;;;19.82;47.55;97697.69;10282944;28;20072;-92
2022/05/09 03:21:28;;;;;;;1.60;1.50;;;;;;;19.81;47.72;97706.88;10233222;28;20051;-92
2022/05/09 03:26:54;;;;;;;2.05;1.48;;;;;;;19.81;47.63;97702.25;10286249;28;20062;-92
2022/05/09 03:32:20;;;;;;;1.45;1.30;;;;;;;19.81;47.61;97707.66;10269814;28;20051;-92
2022/05/09 03:37:44;;;;;;;1.40;1.30;;;;;;;19.80;47.68;97721.47;10267081;28;20142;-92
2022/05/09 03:43:06;;;;;;;1.40;1.30;;;;;;;19.79;47.78;97715.28;10261530;28;20039;-92
2022/05/09 03:48:26;;;;;;;1.50;1.40;;;;;;;19.78;47.67;97716.41;10261528;28;20047;-91
2022/05/09 03:53:45;;;;;;;1.30;1.20;;;;;;;19.78;47.59;97723.69;10244690;28;20067;-92
2022/05/09 03:59:08;;;;;;;1.58;1.45;;;;;;;19.77;47.77;97728.31;10255834;28;20035;-91
2022/05/09 04:04:27;;;;;;;1.60;1.48;;;;;;;19.75;48.34;97725.91;10254241;28;20402;-91
2022/05/09 04:09:48;;;;;;;1.42;1.33;;;;;;;19.78;48.32;97734.50;10264169;28;20047;-92
2022/05/09 04:20:49;;;;;;;;;;;;;;;19.74;48.42;97745.94;10279371;28;20151;-91
2022/05/09 04:26:16;;;;;;;1.60;1.50;;;;;;;19.75;48.35;97750.22;10241176;28;19923;-92
2022/05/09 04:31:44;;;;;;;2.20;2.00;;;;;;;19.75;48.01;97746.75;10259960;28;20129;-91
2022/05/09 04:37:16;;;;;;;2.40;2.20;;;;;;;19.77;47.90;97749.16;10272363;28;20066;-91
2022/05/09 04:43:26;;;;;;;3.63;2.55;;;;;;;19.77;47.92;97749.16;10184614;28;20183;-91
2022/05/09 04:48:46;;;;;;;2.92;2.38;;;;;;;19.77;48.24;97757.25;10180236;29;20063;-92
2022/05/09 04:54:07;;;;;;;6.75;3.03;;;;;;;19.77;48.41;97755.34;10165730;29;20080;-90
2022/05/09 04:59:26;;;;;;;3.47;2.55;;;;;;;19.78;48.54;97765.06;10188413;28;20143;-91
2022/05/09 05:04:46;;;;;;;5.72;2.90;;;;;;;19.78;48.62;97756.97;10151614;29;20071;-91
2022/05/09 05:10:07;;;;;;;4.32;3.30;;;;;;;19.78;48.65;97762.38;10191126;28;20126;-90
2022/05/09 05:15:27;;;;;;;5.80;3.60;;;;;;;19.78;48.83;97767.78;10227665;28;20507;-90
2022/05/09 05:20:47;;;;;;;9.50;3.85;;;;;;;19.78;48.82;97759.66;10271914;28;20126;-91
2022/05/09 05:26:08;;;;;;;7.28;4.13;;;;;;;19.77;48.78;97760.75;10287276;28;20039;-91
2022/05/09 05:31:28;;;;;;;9.00;4.70;;;;;;;19.78;49.06;97761.53;10276402;28;20046;-91
2022/05/09 05:36:50;;;;;;;11.07;4.88;;;;;;;19.77;48.88;97766.16;10269600;28;20119;-91
2022/05/09 05:42:10;;;;;;;8.07;4.28;;;;;;;19.78;48.94;97775.06;10271289;28;20051;-91
2022/05/09 05:47:30;;;;;;;8.70;4.38;;;;;;;19.77;48.81;97779.69;10252171;28;20055;-91
2022/05/09 05:52:50;;;;;;;9.80;4.97;;;;;;;19.77;48.89;97778.88;10302194;28;20046;-90
2022/05/09 05:58:10;;;;;;;8.88;4.22;;;;;;;19.76;48.79;97778.09;10271759;28;20046;-91
2022/05/09 06:03:30;;;;;;;7.88;3.92;;;;;;;19.77;48.94;97789.69;10237363;28;20043;-91
2022/05/09 06:08:49;;;;;;;7.95;4.07;;;;;;;19.77;48.85;97792.41;10276190;28;20478;-90
2022/05/09 06:14:16;;;;;;;7.40;4.22;;;;;;;19.76;48.95;97794.31;10260416;28;20460;-91
2022/05/09 06:19:57;;;;;;;7.82;4.57;;;;;;;19.76;48.78;97797.03;10287357;28;20117;-91
2022/05/09 06:25:30;;;;;;;9.48;4.38;;;;;;;19.77;48.94;97803.22;10273591;28;20105;-92
2022/05/09 06:31:05;;;;;;;8.07;4.18;;;;;;;19.75;49.03;97804.31;10269504;28;20186;-91
2022/05/09 06:36:32;;;;;;;9.23;4.10;;;;;;;19.76;48.96;97807.84;10265216;28;20617;-91
2022/05/09 06:42:00;;;;;;;6.22;3.72;;;;;;;19.77;48.97;97814.81;10282262;28;20052;-92
2022/05/09 06:47:25;;;;;;;8.10;4.10;;;;;;;19.76;48.88;97813.25;10277850;28;20410;-91
2022/05/09 06:52:46;;;;;;;8.50;4.13;;;;;;;19.77;49.08;97812.13;10269750;28;20474;-91
2022/05/09 06:58:12;;;;;;;6.18;3.78;;;;;;;19.76;48.82;97813.25;10275528;28;20055;-92
2022/05/09 07:03:32;;;;;;;7.07;4.13;;;;;;;19.77;49.00;97814.03;10256258;28;20054;-91
2022/05/09 07:08:52;;;;;;;9.05;4.07;;;;;;;19.77;49.07;97811.34;10280786;28;20043;-91
2022/05/09 07:14:12;;;;;;;8.20;4.72;;;;;;;19.75;49.43;97808.91;10247745;28;20055;-91
2022/05/09 07:19:32;;;;;;;7.18;4.40;;;;;;;19.77;49.38;97811.34;10266958;28;20473;-91
2022/05/09 07:24:52;;;;;;;6.38;3.80;;;;;;;19.76;49.37;97813.25;10294017;28;20052;-92
2022/05/09 07:30:14;;;;;;;8.85;4.07;;;;;;;19.75;49.51;97828.63;10248147;28;20481;-91
2022/05/09 07:35:34;;;;;;;7.45;4.00;;;;;;;19.77;49.27;97819.44;10242990;28;20429;-91
2022/05/09 07:40:54;;;;;;;6.13;3.90;;;;;;;19.75;49.40;97820.53;10277660;28;20055;-91
2022/05/09 07:46:14;;;;;;;6.07;4.10;;;;;;;19.77;49.24;97824.84;10252821;28;20395;-92
2022/05/09 07:51:37;;;;;;;6.03;3.80;;;;;;;19.76;49.35;97818.66;10264723;28;20042;-91
2022/05/09 07:56:59;;;;;;;6.40;3.80;;;;;;;19.76;49.37;97821.34;10260411;28;20050;-92
2022/05/09 08:02:19;;;;;;;6.95;4.05;;;;;;;19.77;49.07;97819.44;10229547;28;20387;-91
2022/05/09 08:07:42;;;;;;;7.68;3.78;;;;;;;19.75;49.22;97823.22;10252694;28;20049;-92
2022/05/09 08:13:15;;;;;;;5.38;3.67;;;;;;;19.77;49.34;97820.25;10215010;28;20062;-92
2022/05/09 08:18:36;;;;;;;4.72;3.42;;;;;;;19.76;49.33;97824.06;10237103;28;20058;-92
2022/05/09 08:24:10;;;;;;;6.25;3.47;;;;;;;19.76;49.29;97821.34;10267788;28;20488;-92
2022/05/09 08:29:37;;;;;;;6.50;3.60;;;;;;;19.75;49.45;97819.75;10263739;28;20134;-92
2022/05/09 08:34:59;;;;;;;5.73;3.63;;;;;;;19.75;49.28;97819.75;10294708;28;20042;-92
2022/05/09 08:40:34;;;;;;;4.90;3.33;;;;;;;19.76;49.44;97826.75;10260798;28;20050;-91
2022/05/09 08:46:11;;;;;;;7.10;3.80;;;;;;;19.74;49.32;97815.44;10239559;28;20634;-91
2022/05/09 08:51:56;;;;;;;4.45;3.33;;;;;;;19.75;49.34;97822.44;10288073;28;20074;-91
2022/05/09 08:57:21;;;;;;;7.13;3.40;;;;;;;19.74;49.47;97820.84;10271632;28;20059;-91
2022/05/09 09:02:47;;;;;;;6.22;3.58;;;;;;;19.74;49.34;97821.66;10278210;28;20134;-91
2022/05/09 09:08:24;;;;;;;5.45;3.20;;;;;;;19.75;49.50;97817.03;10252018;28;20050;-92
2022/05/09 09:14:12;;;;;;;5.07;3.17;;;;;;;19.76;49.46;97821.34;10260810;28;20070;-92
2022/05/09 09:19:40;;;;;;;5.53;3.17;;;;;;;19.75;49.33;97819.75;10301439;28;20050;-91
2022/05/09 09:25:10;;;;;;;4.97;3.17;;;;;;;19.75;49.35;97808.91;10275127;28;20053;-91
2022/05/09 09:30:31;;;;;;;3.58;3.22;;;;;;;19.75;49.43;97811.63;10233734;28;20106;-91
2022/05/09 09:36:10;;;;;;;5.05;2.90;;;;;;;19.74;49.52;97816.25;10260388;28;20047;-91
2022/05/09 09:41:38;;;;;;;3.88;2.83;;;;;;;19.74;49.56;97810.84;10220089;28;20078;-92
2022/05/09 09:47:19;;;;;;;4.35;3.25;;;;;;;19.76;49.46;97813.25;10282536;28;20065;-91
2022/05/09 09:53:13;;;;;;;4.75;2.70;;;;;;;19.74;49.38;97800.03;10238933;28;20047;-91
2022/05/09 09:58:34;;;;;;;4.35;2.90;;;;;;;19.75;49.31;97800.81;10195183;29;20062;-91
2022/05/09 10:04:25;;;;;;;4.03;2.85;;;;;;;19.76;49.65;97799.72;10121420;29;20057;-92
2022/05/09 10:10:04;;;;;;;4.63;2.75;;;;;;;19.75;49.54;97800.81;10154864;29;20063;-91
2022/05/09 10:15:36;;;;;;;3.63;2.85;;;;;;;19.74;49.38;97793.81;10141882;29;20096;-92
2022/05/09 10:21:00;;;;;;;3.60;2.67;;;;;;;19.74;49.63;97800.03;10162316;29;20048;-92
2022/05/09 10:26:25;;;;;;;3.78;2.58;;;;;;;19.74;49.50;97785.72;10191477;29;20055;-92
2022/05/09 10:32:00;;;;;;;4.40;2.50;;;;;;;19.74;49.63;97788.41;10205971;29;20097;-92
2022/05/09 10:37:49;;;;;;;4.20;2.53;;;;;;;19.75;49.68;97792.69;10206041;29;20079;-91
2022/05/09 10:43:29;;;;;;;3.65;2.55;;;;;;;19.75;49.65;97790.00;10230896;29;20458;-92
2022/05/09 10:49:43;;;;;;;3.83;2.53;;;;;;;19.76;49.81;97791.63;10231573;29;20190;-91
2022/05/09 10:55:49;;;;;;;5.57;3.80;;;;;;;19.76;50.63;97775.38;10231383;28;20065;-92
2022/05/09 11:02:23;;;;;;;6.22;3.15;;;;;;;19.77;50.94;97773.47;10187155;29;20566;-92
2022/05/09 11:08:25;;;;;;;7.30;3.28;;;;;;;19.79;51.17;97768.56;10185588;29;20048;-91
2022/05/09 11:14:04;;;;;;;6.63;3.10;;;;;;;19.81;50.96;97763.66;10177113;29;20053;-91
2022/05/09 11:19:56;;;;;;;4.93;2.38;;;;;;;19.80;50.95;97748.53;10171265;29;20063;-92
2022/05/09 11:25:54;;;;;;;4.28;2.75;;;;;;;19.81;50.77;97750.13;10154640;29;21774;-92
2022/05/09 11:31:40;;;;;;;;;;;;;;;19.78;50.95;97746.16;10161635;29;20059;-91
2022/05/09 11:37:06;;;;;;;5.50;2.65;;;;;;;19.78;50.59;97740.75;10159363;29;20450;-92
2022/05/09 11:49:32;;;;;;;5.50;2.90;;;;;;;19.78;50.74;97729.94;10258489;28;20055;-92
2022/05/09 11:55:22;;;;;;;6.60;3.20;;;;;;;19.77;50.59;97728.31;10263661;28;20061;-92
2022/05/09 12:00:49;;;;;;;5.13;2.97;;;;;;;19.78;50.47;97729.09;10258225;28;20051;-93
2022/05/09 12:06:35;;;;;;;6.72;3.17;;;;;;;19.77;50.74;97717.50;10234623;28;20094;-92
2022/05/09 12:11:56;;;;;;;5.97;3.03;;;;;;;19.78;50.62;97715.59;10263157;28;20129;-92
2022/05/09 12:17:34;;;;;;;7.13;3.22;;;;;;;19.77;50.62;97709.38;10269976;28;20048;-92
2022/05/09 12:23:04;;;;;;;7.13;3.08;;;;;;;19.79;50.56;97700.97;10291931;28;20536;-92
2022/05/09 12:28:33;;;;;;;6.55;3.15;;;;;;;19.80;50.52;97710.66;10278621;28;20063;-92
2022/05/09 12:33:56;;;;;;;6.82;3.20;;;;;;;19.79;50.49;97693.66;10276750;28;20070;-91
2022/05/09 12:39:33;;;;;;;6.93;3.50;;;;;;;19.81;50.54;97696.06;10250765;28;20069;-92
2022/05/09 12:44:56;;;;;;;6.20;3.10;;;;;;;19.79;50.49;97698.28;10248451;28;20059;-91
2022/05/09 12:50:27;;;;;;;7.68;3.15;;;;;;;19.78;50.65;97697.47;10262277;28;20058;-92
2022/05/09 12:55:57;;;;;;;6.50;3.47;;;;;;;19.79;50.55;97693.66;10265896;28;20075;-91
2022/05/09 13:01:25;;;;;;;6.72;3.35;;;;;;;19.79;50.64;97677.44;10279503;28;20486;-91
2022/05/09 13:06:56;;;;;;;6.82;3.15;;;;;;;19.80;50.63;97673.63;10265589;28;20051;-92
2022/05/09 13:12:26;;;;;;;8.17;3.03;;;;;;;19.82;50.58;97676.84;10290870;28;20050;-91
2022/05/09 13:17:57;;;;;;;7.07;3.60;;;;;;;19.82;50.42;97668.72;10277818;28;20050;-92
2022/05/09 13:23:51;;;;;;;6.35;3.38;;;;;;;19.82;50.62;97660.63;10263268;28;20529;-91
2022/05/09 13:29:27;;;;;;;6.50;3.45;;;;;;;19.83;50.61;97667.59;10156305;29;20086;-92
2022/05/09 13:35:01;;;;;;;8.43;3.47;;;;;;;19.84;50.70;97658.41;10142217;29;20048;-92
2022/05/09 13:40:31;;;;;;;5.78;3.30;;;;;;;19.84;50.91;97653.00;10162272;29;20076;-92
2022/05/09 13:46:14;;;;;;;7.80;3.30;;;;;;;19.85;51.06;97638.34;10148089;29;20059;-91
2022/05/09 13:51:41;;;;;;;5.30;3.20;;;;;;;19.86;51.15;97642.69;10160230;29;20056;-91
2022/05/09 13:57:10;;;;;;;6.72;3.50;;;;;;;19.89;51.20;97642.03;10215791;28;20074;-91
2022/05/09 14:02:39;;;;;;;6.47;3.50;;;;;;;19.89;51.19;97627.72;10298786;28;20101;-91
2022/05/09 14:08:06;;;;;;;4.80;2.95;;;;;;;19.90;51.26;97630.13;10284971;28;20074;-92
2022/05/09 14:13:45;;;;;;;6.60;3.17;;;;;;;19.92;51.27;97622.53;10284782;28;20402;-92
2022/05/09 14:19:25;;;;;;;5.45;3.03;;;;;;;19.92;51.13;97619.81;10277635;28;20039;-92
2022/05/09 14:30:42;;;;;;;5.28;3.10;;;;;;;19.91;51.25;97615.50;10279416;28;20050;-92
2022/05/09 14:36:04;;;;;;;6.55;3.05;;;;;;;19.93;51.21;97607.09;10282931;28;20506;-91
2022/05/09 14:41:36;;;;;;;4.65;3.03;;;;;;;19.97;51.15;97604.56;10277969;28;20414;-92
2022/05/09 14:47:07;;;;;;;6.88;3.08;;;;;;;20.00;51.12;97596.66;10270309;28;20046;-91
2022/05/09 14:52:43;;;;;;;6.28;3.13;;;;;;;20.01;51.01;97592.03;10269250;28;20058;-92
2022/05/09 14:58:34;;;;;;;7.63;3.28;;;;;;;20.04;50.98;97588.72;10283335;28;20493;-91
2022/05/09 15:03:57;;;;;;;4.88;2.70;;;;;;;20.07;51.00;97588.09;10148236;29;20052;-91
2022/05/09 15:09:16;;;;;;;4.78;3.05;;;;;;;20.09;50.99;97581.28;10131535;29;20139;-91
2022/05/09 15:14:38;;;;;;;4.97;2.63;;;;;;;20.11;50.13;97578.25;10153919;29;20095;-92
2022/05/09 15:20:14;;;;;;;3.97;2.22;;;;;;;20.01;46.32;97573.88;10157600;29;20091;-92
2022/05/09 15:25:35;;;;;;;3.38;2.42;;;;;;;19.93;45.93;97574.63;10163192;29;20047;-91
2022/05/09 15:31:22;;;;;;;4.45;2.15;;;;;;;19.89;44.92;97569.03;10185280;28;20047;-92
2022/05/09 15:36:51;;;;;;;2.10;1.90;;;;;;;19.85;44.63;97565.34;10267681;28;20098;-92
2022/05/09 15:48:34;;;;;;;3.17;2.00;;;;;;;19.78;42.82;97556.88;10295821;28;20059;-91
2022/05/09 15:54:06;;;;;;;4.18;2.00;;;;;;;19.77;43.20;97560.69;10272651;28;20457;-91
2022/05/09 16:00:30;;;;;;;2.55;1.88;;;;;;;19.76;42.91;97559.09;10304459;28;20082;-92
2022/05/09 16:12:12;;;;;;;2.35;1.80;;;;;;;19.72;42.47;97552.72;10300788;28;20062;-91
2022/05/09 16:17:38;;;;;;;1.80;1.70;;;;;;;19.72;42.27;97555.41;10276698;28;20419;-92
2022/05/09 16:23:41;;;;;;;3.08;1.83;;;;;;;19.70;41.16;97546.78;10347496;28;20121;-92
2022/05/09 16:29:27;;;;;;;2.90;1.60;;;;;;;19.68;41.49;97544.38;10247335;28;20054;-92
2022/05/09 16:35:20;;;;;;;2.05;1.60;;;;;;;19.67;41.62;97545.47;10282014;28;20487;-92
2022/05/09 16:40:54;;;;;;;2.03;1.50;;;;;;;19.65;40.68;97542.28;10272790;28;20132;-91
2022/05/09 16:46:30;;;;;;;4.40;1.77;;;;;;;19.63;40.19;97543.69;10296286;28;20057;-92
2022/05/09 16:52:07;;;;;;;1.65;1.50;;;;;;;19.62;40.14;97550.19;10279778;28;20399;-91
2022/05/09 16:57:34;;;;;;;2.85;1.80;;;;;;;19.60;41.47;97538.91;10281386;28;20043;-92
2022/05/09 17:02:56;;;;;;;2.45;1.65;;;;;;;19.64;41.91;97535.28;10276602;28;20049;-92
2022/05/09 17:08:34;;;;;;;2.13;1.60;;;;;;;19.67;42.13;97533.88;10309205;28;20473;-93
2022/05/09 17:14:07;;;;;;;2.65;1.70;;;;;;;19.68;42.11;97527.34;10292508;28;20046;-92
2022/05/09 17:19:41;;;;;;;2.75;1.42;;;;;;;19.68;42.08;97533.56;10250722;28;20144;-92
2022/05/09 17:25:03;;;;;;;3.90;1.95;;;;;;;19.69;42.22;97534.38;10291875;28;20074;-91
2022/05/09 17:30:39;;;;;;;2.35;1.70;;;;;;;19.69;43.25;97539.78;10270662;28;20126;-92
2022/05/09 17:41:56;;;;;;;3.63;1.65;;;;;;;19.68;43.73;97536.28;10300560;28;20109;-92
2022/05/09 17:47:18;;;;;;;4.15;1.70;;;;;;;19.69;43.93;97537.06;10299463;28;20121;-91
2022/05/09 17:53:00;;;;;;;3.28;1.70;;;;;;;19.68;44.08;97543.56;10281691;28;20645;-92
2022/05/09 17:59:30;;;;;;;3.75;1.60;;;;;;;19.66;44.48;97548.47;10278312;28;20758;-94
2022/05/09 18:12:52;;;;;;;2.92;1.50;;;;;;;19.51;44.42;97550.44;10126774;29;20094;-93
2022/05/09 18:19:50;;;;;;;;;;;;;;;;;;;;;
2022/05/09 18:33:08;;;;;;;;;;;;;;;;;;;;;
2022/05/09 18:47:31;;;;;;;;;;;;;;;;;;;;;
2022/05/09 19:22:26;;;;;;;4.80;1.80;;;;;;;19.58;46.10;97592.47;9947307;29;20056;-91
2022/05/09 19:28:20;;;;;;;3.75;2.10;;;;;;;19.56;46.42;97596.28;10193789;29;20056;-91
2022/05/09 19:34:00;;;;;;;2.72;1.77;;;;;;;19.57;46.07;97605.19;10201964;29;20172;-91
2022/05/09 19:39:30;;;;;;;2.78;1.90;;;;;;;19.55;46.19;97599.28;10184272;29;20083;-91
2022/05/09 19:45:56;;;;;;;3.15;1.90;;;;;;;19.54;46.03;97601.19;10186061;29;20110;-91
2022/05/09 19:51:30;;;;;;;2.92;1.85;;;;;;;19.54;45.83;97603.06;10207268;29;20492;-91
2022/05/09 19:56:59;;;;;;;2.58;1.85;;;;;;;19.54;45.88;97601.19;10235932;29;20055;-91
2022/05/09 20:02:23;;;;;;;3.70;2.03;;;;;;;19.54;45.78;97601.19;10238285;29;20054;-91
2022/05/09 20:08:04;;;;;;;2.65;1.90;;;;;;;19.54;45.27;97606.59;10227056;29;20055;-91
2022/05/09 20:13:30;;;;;;;4.20;2.20;;;;;;;19.52;45.49;97611.50;10250906;28;20043;-91
2022/05/09 20:19:15;;;;;;;3.53;2.40;;;;;;;19.53;45.41;97609.59;10230081;28;20059;-92
2022/05/09 20:25:13;;;;;;;3.38;2.28;;;;;;;19.54;45.78;97608.47;10227404;28;20074;-92
2022/05/09 20:30:59;;;;;;;3.50;2.47;;;;;;;19.56;45.81;97617.06;10175340;29;20142;-92
2022/05/09 20:36:41;;;;;;;4.57;2.80;;;;;;;19.59;45.69;97618.41;10176685;29;20051;-91
2022/05/09 20:42:06;;;;;;;3.88;2.63;;;;;;;19.60;45.95;97619.97;10158242;29;20052;-92
2022/05/09 20:47:49;;;;;;;4.47;2.47;;;;;;;19.61;46.09;97616.19;10178847;29;20059;-92
2022/05/09 20:53:17;;;;;;;3.03;2.30;;;;;;;19.58;45.82;97612.16;10192241;29;20339;-92
2022/05/09 20:58:40;;;;;;;3.00;2.40;;;;;;;19.55;45.67;97613.59;10194009;28;20073;-91
2022/05/09 21:04:03;;;;;;;3.08;2.60;;;;;;;19.55;45.70;97620.91;10285693;28;20497;-90
2022/05/09 21:09:28;;;;;;;2.95;2.20;;;;;;;19.54;45.71;97625.50;10244238;28;20055;-91
2022/05/09 21:14:49;;;;;;;2.63;2.30;;;;;;;19.54;45.94;97624.69;10258229;28;20121;-91
2022/05/09 21:20:10;;;;;;;3.83;2.20;;;;;;;19.53;45.89;97623.09;10246770;28;20042;-91
2022/05/09 21:25:35;;;;;;;3.72;2.40;;;;;;;19.52;45.91;97616.91;10252202;28;20048;-91
2022/05/09 21:30:57;;;;;;;2.45;2.22;;;;;;;19.52;46.11;97619.63;10286357;28;20402;-91
2022/05/09 21:36:24;;;;;;;3.92;2.40;;;;;;;19.52;46.15;97616.09;10261992;28;20039;-91
2022/05/09 21:41:44;;;;;;;2.50;2.30;;;;;;;19.51;46.15;97618.00;10240476;28;20055;-91
2022/05/09 21:47:06;;;;;;;2.50;2.22;;;;;;;19.50;46.29;97627.22;10229251;28;20129;-91
2022/05/09 21:52:31;;;;;;;2.90;2.00;;;;;;;19.51;46.21;97622.63;10262100;28;20059;-92
2022/05/09 21:57:54;;;;;;;2.83;2.10;;;;;;;19.52;46.44;97629.59;10247486;28;20075;-91
2022/05/09 22:03:16;;;;;;;2.40;2.20;;;;;;;19.50;46.31;97615.59;10243705;28;20422;-91
2022/05/09 22:08:36;;;;;;;2.17;2.08;;;;;;;19.50;46.24;97621.81;10258087;28;20067;-91
2022/05/09 22:13:55;;;;;;;2.72;2.05;;;;;;;19.51;46.54;97617.22;10263278;28;20086;-92
2022/05/09 22:19:19;;;;;;;2.15;1.95;;;;;;;19.50;46.42;97613.72;10209520;29;20127;-91
2022/05/09 22:24:43;;;;;;;2.42;1.92;;;;;;;19.50;46.65;97604.78;10229237;29;20134;-91
2022/05/09 22:30:08;;;;;;;2.38;2.17;;;;;;;19.50;46.73;97602.09;10231905;29;20048;-92
2022/05/09 22:35:29;;;;;;;2.33;2.13;;;;;;;19.49;46.71;97598.59;10240484;29;20050;-91
2022/05/09 22:40:49;;;;;;;2.25;2.05;;;;;;;19.49;46.78;97593.19;10221051;28;20099;-92
2022/05/09 22:46:09;;;;;;;2.67;2.10;;;;;;;19.48;46.83;97591.59;10218838;29;20395;-91
2022/05/09 22:51:29;;;;;;;2.35;2.05;;;;;;;19.47;46.76;97587.28;10215070;29;20058;-91
2022/05/09 22:56:49;;;;;;;2.22;2.03;;;;;;;19.49;46.88;97587.00;10255274;28;20097;-92
2022/05/09 23:02:15;;;;;;;2.33;2.00;;;;;;;19.47;46.94;97581.88;10260693;28;20093;-91
2022/05/09 23:07:35;;;;;;;2.15;1.98;;;;;;;19.47;46.76;97576.47;10240887;28;20074;-91
2022/05/09 23:12:57;;;;;;;2.17;1.92;;;;;;;19.46;47.02;97574.88;10279403;28;20413;-91
2022/05/09 23:18:18;;;;;;;2.05;1.80;;;;;;;19.45;46.97;97559.78;10286642;28;20046;-91
2022/05/09 23:23:39;;;;;;;2.13;1.85;;;;;;;19.46;46.80;97565.97;10274771;28;20046;-91
2022/05/09 23:29:04;;;;;;;2.08;1.90;;;;;;;19.47;47.03;97554.06;10254717;28;20055;-92
2022/05/09 23:34:26;;;;;;;1.95;1.73;;;;;;;19.45;46.91;97554.38;10263649;28;20102;-91
2022/05/09 23:39:46;;;;;;;2.33;1.80;;;;;;;19.45;46.94;97554.38;10258323;28;20058;-91
2022/05/09 23:45:06;;;;;;;1.90;1.73;;;;;;;19.46;47.06;97549.75;10253675;28;20047;-91
2022/05/09 23:50:32;;;;;;;2.42;1.92;;;;;;;19.44;46.97;97541.94;10270277;28;20094;-91
2022/05/09 23:55:52;;;;;;;2.38;1.80;;;;;;;19.44;47.01;97543.84;10268301;28;20138;-91
